Airport View

Enter AWOS ICAO identifier for current METAR.

ex. KFNL

KU42 210025Z AUTO 19004KT 10SM SCT080 SCT100 12/05 A3009 RMK AO1 T01160054

21 Sep 2019 00:30

Frequency: 134.425

Phone: 801-562-0271

Other Area AWOS: KSLC - KTVY - KHCR - K36U

TAF KSLC 202325Z 2100/2206 16008KT P6SM VCSH SCT040 BKN070 FM210400 15005KT P6SM SCT050 BKN080 FM211800 31007KT P6SM FEW080 FM220200 14005KT P6SM SCT120